Time;durP1;ratioP1;P1;durP2;ratioP2;P2;SDS_P1;SDS_P2;PMS_P1;PMS_P2;Temp;Humidity;BMP_temperature;BMP_pressure;BME280_temperature;BME280_humidity;BME280_pressure;Samples;Min_cycle;Max_cycle;Signal;HPM_P1;HPM_P2
2024/02/05 00:03:37;;;;;;;0.00;0.00;;;;;;;7.93;93.87;100403.81;15716826;28;20068;-49
2024/02/05 00:11:22;;;;;;;0.00;0.00;;;;;;;8.21;95.08;100400.16;15717362;28;20063;-47
2024/02/05 00:18:57;;;;;;;0.00;0.00;;;;;;;8.26;96.35;100376.31;15713851;28;20049;-48
2024/02/05 00:26:30;;;;;;;0.35;0.13;;;;;;;8.43;95.69;100377.59;15691387;28;20039;-49
2024/02/05 00:34:06;;;;;;;0.28;0.20;;;;;;;8.53;95.93;100355.78;15715124;28;20500;-51
2024/02/05 00:41:40;;;;;;;0.00;0.00;;;;;;;8.88;96.35;100369.75;15664336;28;20087;-48
2024/02/05 00:49:15;;;;;;;;;;;;;;;8.94;96.51;100359.03;15680384;28;20048;-46
2024/02/05 00:56:49;;;;;;;0.00;0.00;;;;;;;9.01;96.57;100356.34;15743231;28;20373;-48
2024/02/05 01:04:30;;;;;;;0.00;0.00;;;;;;;9.09;96.25;100356.13;15739844;28;20036;-48
2024/02/05 01:12:07;;;;;;;0.00;0.00;;;;;;;9.18;96.60;100354.03;15742308;28;20489;-48
2024/02/05 01:19:42;;;;;;;0.00;0.00;;;;;;;9.22;95.99;100357.94;15734086;28;20041;-47
2024/02/05 01:27:18;;;;;;;0.00;0.00;;;;;;;9.31;95.67;100363.88;15741381;28;20094;-47
2024/02/05 01:34:53;;;;;;;0.00;0.00;;;;;;;9.42;95.47;100355.22;15722694;28;20493;-44
2024/02/05 01:42:30;;;;;;;0.00;0.00;;;;;;;9.33;95.70;100359.16;15723099;28;20083;-45
2024/02/05 01:50:09;;;;;;;0.10;0.05;;;;;;;9.36;95.37;100361.38;15684288;28;20053;-48
2024/02/05 01:57:43;;;;;;;0.00;0.00;;;;;;;9.38;95.18;100367.38;15678170;28;20099;-48
2024/02/05 02:05:19;;;;;;;0.40;0.10;;;;;;;9.54;94.65;100366.88;15676646;28;20037;-48
2024/02/05 02:12:52;;;;;;;0.00;0.00;;;;;;;9.60;94.45;100375.94;15692167;28;20049;-46
2024/02/05 02:20:35;;;;;;;0.00;0.00;;;;;;;9.56;94.80;100362.16;15675892;28;20502;-48
2024/02/05 02:28:10;;;;;;;0.00;0.00;;;;;;;9.48;94.82;100386.50;15657943;28;20214;-47
2024/02/05 02:35:49;;;;;;;0.00;0.00;;;;;;;9.53;94.63;100364.44;15641157;28;20053;-51
2024/02/05 02:43:28;;;;;;;0.00;0.00;;;;;;;9.52;94.15;100352.06;15656289;28;20379;-46
2024/02/05 02:51:04;;;;;;;0.15;0.15;;;;;;;9.56;94.69;100369.34;15674101;28;20041;-45
2024/02/05 02:58:39;;;;;;;0.00;0.00;;;;;;;9.45;95.25;100363.63;15673959;28;20041;-49
2024/02/05 03:06:13;;;;;;;0.00;0.00;;;;;;;9.47;94.81;100355.38;15654523;28;20087;-47
2024/02/05 03:13:48;;;;;;;0.00;0.00;;;;;;;9.54;95.23;100374.09;15672028;28;20353;-46
2024/02/05 03:21:24;;;;;;;0.00;0.00;;;;;;;9.45;95.63;100386.91;15674279;28;20041;-45
2024/02/05 03:29:01;;;;;;;0.22;0.22;;;;;;;9.53;95.86;100392.03;15654985;28;20135;-46
2024/02/05 03:36:35;;;;;;;0.00;0.00;;;;;;;9.60;96.00;100374.06;15671184;28;20056;-45
2024/02/05 03:44:10;;;;;;;0.00;0.00;;;;;;;9.48;96.17;100389.19;15654656;28;20431;-44
2024/02/05 03:51:43;;;;;;;0.00;0.00;;;;;;;9.51;96.04;100390.59;15638072;28;20052;-45
2024/02/05 03:59:24;;;;;;;0.00;0.00;;;;;;;9.55;95.78;100400.69;15671459;28;20055;-45
2024/02/05 04:06:59;;;;;;;0.28;0.28;;;;;;;9.69;95.87;100410.31;15641680;28;20048;-47
2024/02/05 04:14:35;;;;;;;0.00;0.00;;;;;;;9.46;96.27;100407.31;15653500;28;20083;-44
2024/02/05 04:22:11;;;;;;;0.05;0.05;;;;;;;9.55;96.12;100415.94;15670864;28;20045;-49
2024/02/05 04:29:47;;;;;;;0.00;0.00;;;;;;;9.34;96.76;100425.06;15680145;28;20052;-45
2024/02/05 04:37:30;;;;;;;0.00;0.00;;;;;;;9.49;96.38;100424.81;15676916;28;20041;-42
2024/02/05 04:45:08;;;;;;;0.00;0.00;;;;;;;9.58;95.16;100432.41;15681425;28;20054;-44
2024/02/05 04:52:41;;;;;;;0.00;0.00;;;;;;;9.51;95.48;100430.78;15681561;28;20037;-43
2024/02/05 05:00:21;;;;;;;0.00;0.00;;;;;;;9.51;95.68;100418.19;15692285;28;20123;-43
2024/02/05 05:07:55;;;;;;;0.00;0.00;;;;;;;9.45;96.05;100429.78;15691441;28;20037;-44
2024/02/05 05:15:32;;;;;;;0.00;0.00;;;;;;;9.44;95.36;100430.81;15662240;28;20052;-43
2024/02/05 05:23:06;;;;;;;0.00;0.00;;;;;;;9.48;95.27;100432.03;15662625;28;20068;-43
2024/02/05 05:30:41;;;;;;;0.00;0.00;;;;;;;9.59;94.51;100431.38;15679922;28;20079;-42
2024/02/05 05:38:16;;;;;;;0.00;0.00;;;;;;;9.47;94.69;100427.72;15678549;28;20049;-43
2024/02/05 05:45:52;;;;;;;0.00;0.00;;;;;;;9.52;94.55;100435.94;15678202;28;20072;-44
2024/02/05 05:53:25;;;;;;;0.00;0.00;;;;;;;9.43;94.38;100432.66;15682914;28;20037;-46
2024/02/05 06:01:05;;;;;;;0.00;0.00;;;;;;;9.34;94.51;100428.56;15668130;28;20131;-46
2024/02/05 06:08:39;;;;;;;0.00;0.00;;;;;;;9.26;94.57;100436.00;15664469;28;20122;-44
2024/02/05 06:16:20;;;;;;;0.00;0.00;;;;;;;9.36;94.61;100431.03;15677066;28;20061;-47
2024/02/05 06:23:55;;;;;;;0.00;0.00;;;;;;;9.39;94.58;100436.81;15688009;28;20041;-45
2024/02/05 06:31:31;;;;;;;0.00;0.00;;;;;;;9.42;94.53;100451.66;15676798;28;20200;-42
2024/02/05 06:39:04;;;;;;;0.00;0.00;;;;;;;9.35;94.66;100453.50;15675934;28;20080;-44
2024/02/05 06:46:40;;;;;;;0.00;0.00;;;;;;;9.46;93.99;100458.19;15663133;28;20040;-43
2024/02/05 06:54:14;;;;;;;0.00;0.00;;;;;;;9.45;93.91;100469.97;15672463;28;20033;-44
2024/02/05 07:01:49;;;;;;;0.03;0.03;;;;;;;9.39;93.38;100482.34;15656596;28;20132;-45
2024/02/05 07:09:26;;;;;;;0.00;0.00;;;;;;;9.48;92.82;100504.38;15652270;28;20045;-46
2024/02/05 07:17:02;;;;;;;0.00;0.00;;;;;;;9.34;92.52;100470.59;15673572;28;20560;-45
2024/02/05 07:24:44;;;;;;;0.00;0.00;;;;;;;9.52;91.89;100505.63;15673168;28;20516;-42
2024/02/05 07:32:19;;;;;;;0.00;0.00;;;;;;;9.41;93.31;100498.19;15690124;22;20141;-47
2024/02/05 07:39:52;;;;;;;0.00;0.00;;;;;;;9.37;93.30;100497.81;15698324;28;20064;-47
2024/02/05 07:47:27;;;;;;;0.10;0.10;;;;;;;9.36;92.66;100504.16;15737385;28;20136;-47
2024/02/05 07:55:02;;;;;;;0.00;0.00;;;;;;;9.39;93.19;100510.97;15720221;28;20075;-49
2024/02/05 08:02:41;;;;;;;0.00;0.00;;;;;;;9.51;92.22;100511.16;15704712;28;20509;-50
2024/02/05 08:10:16;;;;;;;0.00;0.00;;;;;;;9.35;92.78;100518.59;15723004;28;20513;-51
2024/02/05 08:17:51;;;;;;;0.00;0.00;;;;;;;9.35;92.86;100523.13;15694571;28;20531;-48
2024/02/05 08:25:29;;;;;;;0.00;0.00;;;;;;;9.22;93.37;100532.00;15681954;28;20505;-49
2024/02/05 08:33:04;;;;;;;0.00;0.00;;;;;;;9.29;93.96;100529.34;15717243;28;20291;-53
2024/02/05 08:40:38;;;;;;;0.00;0.00;;;;;;;9.14;93.37;100545.63;15716017;28;20043;-50
2024/02/05 08:48:15;;;;;;;0.10;0.10;;;;;;;9.17;93.67;100540.66;15716125;28;20052;-48
2024/02/05 08:55:49;;;;;;;0.00;0.00;;;;;;;9.37;92.42;100546.03;15716173;28;20066;-53
2024/02/05 09:03:24;;;;;;;0.00;0.00;;;;;;;9.24;92.02;100534.50;15705422;28;20070;-53
2024/02/05 09:11:00;;;;;;;1.08;0.30;;;;;;;9.26;92.01;100548.50;15672639;28;20079;-53
2024/02/05 09:18:35;;;;;;;0.00;0.00;;;;;;;9.27;91.71;100539.41;15743287;28;20483;-50
2024/02/05 09:26:13;;;;;;;0.00;0.00;;;;;;;9.24;91.01;100564.78;15723140;28;20492;-53
2024/02/05 09:33:48;;;;;;;0.00;0.00;;;;;;;9.36;88.37;100555.06;15725660;28;20072;-50
2024/02/05 09:41:33;;;;;;;0.00;0.00;;;;;;;9.42;87.36;100553.44;15711823;28;20547;-53
2024/02/05 09:49:09;;;;;;;0.00;0.00;;;;;;;9.61;85.80;100563.31;15724814;28;20045;-51
2024/02/05 09:56:43;;;;;;;0.08;0.08;;;;;;;9.52;85.92;100571.78;15708130;28;20045;-52
2024/02/05 10:04:19;;;;;;;0.00;0.00;;;;;;;9.62;84.85;100582.88;15739656;28;20047;-52
2024/02/05 10:11:53;;;;;;;0.00;0.00;;;;;;;9.69;83.06;100584.50;15722198;28;20056;-50
2024/02/05 10:19:33;;;;;;;0.00;0.00;;;;;;;9.74;81.39;100588.44;15724255;28;20052;-50
2024/02/05 10:27:07;;;;;;;1.17;1.08;;;;;;;9.65;82.32;100595.84;15729346;28;20055;-53
2024/02/05 10:34:52;;;;;;;1.17;1.08;;;;;;;9.76;80.92;100600.59;15738668;28;20072;-53
2024/02/05 10:42:33;;;;;;;5.40;1.08;;;;;;;9.74;81.02;100594.59;15738965;28;20036;-49
2024/02/05 10:50:10;;;;;;;0.00;0.00;;;;;;;9.53;83.30;100597.53;15735389;28;20044;-49
2024/02/05 10:57:51;;;;;;;0.30;0.30;;;;;;;9.42;82.57;100601.66;15738024;28;20098;-50
2024/02/05 11:05:27;;;;;;;3.10;1.35;;;;;;;9.51;80.37;100583.50;15705883;28;20040;-52
2024/02/05 11:13:04;;;;;;;0.00;0.00;;;;;;;9.39;81.55;100594.03;15735841;28;20808;-50
2024/02/05 11:20:40;;;;;;;0.38;0.10;;;;;;;9.25;79.93;100566.41;15738377;28;20135;-51
2024/02/05 11:28:15;;;;;;;0.00;0.00;;;;;;;9.47;78.74;100566.22;15722286;28;20490;-51
2024/02/05 11:35:50;;;;;;;1.25;1.02;;;;;;;9.49;78.75;100573.00;15718465;28;20405;-54
2024/02/05 11:43:26;;;;;;;0.25;0.25;;;;;;;9.25;79.27;100557.56;15702879;28;20041;-52
2024/02/05 11:51:02;;;;;;;0.00;0.00;;;;;;;9.53;79.26;100560.00;15714565;28;20048;-53
2024/02/05 11:58:37;;;;;;;0.00;0.00;;;;;;;9.34;80.09;100577.75;15735556;28;20103;-52
2024/02/05 12:06:15;;;;;;;0.10;0.10;;;;;;;9.39;79.38;100572.59;15680806;28;20072;-55
2024/02/05 12:13:57;;;;;;;0.57;0.57;;;;;;;9.35;79.27;100577.53;15688629;28;20055;-53
2024/02/05 12:21:32;;;;;;;0.17;0.13;;;;;;;9.35;78.85;100572.19;15736659;28;20102;-51
2024/02/05 12:29:05;;;;;;;0.00;0.00;;;;;;;9.40;77.93;100567.03;15716168;28;20063;-51
2024/02/05 12:36:48;;;;;;;0.32;0.32;;;;;;;9.59;76.74;100570.72;15731813;28;20348;-52
2024/02/05 12:44:21;;;;;;;1.10;0.80;;;;;;;9.40;77.21;100569.69;15730315;28;20071;-54
2024/02/05 12:51:57;;;;;;;3.97;1.17;;;;;;;9.52;76.89;100571.78;15726355;28;20071;-50
2024/02/05 12:59:32;;;;;;;0.20;0.10;;;;;;;9.58;75.85;100558.34;15746594;28;20041;-54
2024/02/05 13:07:08;;;;;;;0.00;0.00;;;;;;;9.54;75.76;100562.47;15719971;28;20053;-54
2024/02/05 13:14:53;;;;;;;8.05;2.30;;;;;;;9.59;75.48;100572.56;15713521;28;20131;-55
2024/02/05 13:22:28;;;;;;;0.10;0.10;;;;;;;9.55;74.70;100571.34;15718486;28;20048;-51
2024/02/05 13:30:01;;;;;;;27.25;2.88;;;;;;;9.64;73.10;100576.28;15716402;22;20472;-47
2024/02/05 13:37:38;;;;;;;0.00;0.00;;;;;;;9.52;73.71;100575.28;15734298;28;20135;-49
2024/02/05 13:45:12;;;;;;;2.05;0.57;;;;;;;9.78;72.37;100574.41;15744172;28;20101;-50
2024/02/05 13:52:48;;;;;;;0.88;0.60;;;;;;;9.67;72.30;100559.78;15733898;28;20128;-48
2024/02/05 14:00:22;;;;;;;0.55;0.43;;;;;;;9.75;71.04;100582.06;15739218;28;20056;-48
2024/02/05 14:07:57;;;;;;;1.98;0.93;;;;;;;9.79;70.83;100602.88;15729887;28;20139;-47
2024/02/05 14:15:30;;;;;;;0.20;0.20;;;;;;;9.67;70.71;100604.53;15731504;28;20048;-52
2024/02/05 14:23:05;;;;;;;0.10;0.10;;;;;;;9.85;69.96;100598.53;15731656;28;20052;-49
2024/02/05 14:30:42;;;;;;;0.10;0.10;;;;;;;9.73;70.40;100594.81;15729219;28;20394;-47
2024/02/05 14:38:18;;;;;;;0.20;0.20;;;;;;;9.66;69.88;100578.75;15734943;28;20116;-48
2024/02/05 14:45:51;;;;;;;0.05;0.05;;;;;;;9.65;69.48;100571.72;15726594;28;20055;-51
2024/02/05 14:53:26;;;;;;;0.05;0.05;;;;;;;9.79;68.59;100592.16;15725721;28;20040;-48
2024/02/05 15:01:00;;;;;;;1.42;1.33;;;;;;;9.79;68.61;100597.50;15734566;28;20057;-48
2024/02/05 15:08:38;;;;;;;0.00;0.00;;;;;;;9.73;68.30;100597.50;15730505;28;20521;-50
2024/02/05 15:16:12;;;;;;;7.45;0.30;;;;;;;9.59;68.45;100583.28;15733381;28;20048;-49
2024/02/05 15:23:47;;;;;;;0.25;0.25;;;;;;;9.75;67.97;100608.84;15734247;28;20048;-50
2024/02/05 15:31:20;;;;;;;0.45;0.45;;;;;;;9.70;68.31;100618.34;15735395;28;20470;-49
2024/02/05 15:38:56;;;;;;;0.63;0.63;;;;;;;9.64;68.21;100592.34;15734660;28;20596;-48
2024/02/05 15:46:34;;;;;;;0.43;0.43;;;;;;;9.71;67.94;100601.22;15739050;28;20043;-49
2024/02/05 15:54:09;;;;;;;0.50;0.50;;;;;;;9.85;67.56;100601.22;15727587;28;20036;-49
2024/02/05 16:01:45;;;;;;;0.65;0.60;;;;;;;9.69;67.71;100581.00;15730104;28;20742;-50
2024/02/05 16:09:21;;;;;;;0.20;0.20;;;;;;;9.80;67.50;100593.78;15731340;28;20064;-52
2024/02/05 16:16:56;;;;;;;2.58;0.40;;;;;;;9.71;66.91;100587.00;15732344;28;20126;-48
2024/02/05 16:24:33;;;;;;;4.80;1.60;;;;;;;9.76;66.63;100584.53;15740541;28;20037;-49
2024/02/05 16:32:07;;;;;;;0.55;0.55;;;;;;;9.89;66.25;100584.50;15743339;28;20040;-53
2024/02/05 16:39:44;;;;;;;0.70;0.43;;;;;;;9.79;67.04;100573.38;15742341;28;20104;-49
2024/02/05 16:47:19;;;;;;;0.60;0.60;;;;;;;9.71;66.76;100569.06;15749583;28;20493;-49
2024/02/05 16:54:54;;;;;;;0.10;0.10;;;;;;;9.78;66.11;100568.22;15744788;28;20693;-49
2024/02/05 17:02:28;;;;;;;0.03;0.03;;;;;;;9.87;66.35;100572.31;15716373;28;20048;-47
2024/02/05 17:10:06;;;;;;;0.00;0.00;;;;;;;9.82;66.21;100572.13;15741692;28;20040;-49
2024/02/05 17:17:40;;;;;;;1.02;0.95;;;;;;;10.00;65.82;100585.69;15740265;28;20029;-50
2024/02/05 17:25:16;;;;;;;0.63;0.63;;;;;;;9.88;66.91;100565.91;15741617;28;20037;-51
2024/02/05 17:32:50;;;;;;;1.65;0.82;;;;;;;9.87;67.02;100569.66;15733286;28;20048;-49
2024/02/05 17:40:25;;;;;;;0.57;0.57;;;;;;;9.88;66.51;100572.09;15740406;28;20132;-48
2024/02/05 17:48:00;;;;;;;0.10;0.10;;;;;;;9.84;66.27;100578.94;15744049;28;20052;-49
2024/02/05 17:55:38;;;;;;;1.15;0.50;;;;;;;10.04;65.44;100572.72;15740634;28;20111;-49
2024/02/05 18:03:11;;;;;;;8.20;1.50;;;;;;;9.78;65.76;100577.06;15732050;28;20417;-48
2024/02/05 18:10:46;;;;;;;8.48;1.45;;;;;;;9.92;65.33;100561.78;15740028;28;20158;-50
2024/02/05 18:18:23;;;;;;;0.00;0.00;;;;;;;9.89;65.68;100568.41;15739946;28;20055;-49
2024/02/05 18:26:00;;;;;;;0.03;0.03;;;;;;;9.81;65.78;100582.03;15730716;28;20086;-51
2024/02/05 18:33:34;;;;;;;0.47;0.47;;;;;;;9.91;65.88;100574.38;15737273;28;20438;-50
2024/02/05 18:41:08;;;;;;;0.70;0.52;;;;;;;9.85;66.08;100571.72;15736591;28;20430;-50
2024/02/05 18:48:42;;;;;;;0.22;0.22;;;;;;;9.83;66.55;100568.41;15744998;28;20048;-51
2024/02/05 18:56:17;;;;;;;;;;;;;;;9.91;66.40;100555.59;15737669;28;20083;-49
2024/02/05 19:03:51;;;;;;;0.52;0.20;;;;;;;9.89;66.85;100564.91;15722576;28;19924;-51
2024/02/05 19:11:27;;;;;;;0.03;0.03;;;;;;;9.84;67.26;100544.09;15734382;28;20135;-52
2024/02/05 19:19:01;;;;;;;0.50;0.50;;;;;;;9.81;67.39;100555.22;15740899;28;20041;-54
2024/02/05 19:26:36;;;;;;;0.13;0.13;;;;;;;9.94;67.07;100552.53;15735202;28;20094;-50
2024/02/05 19:34:09;;;;;;;1.67;1.17;;;;;;;9.78;67.90;100536.06;15736411;28;20044;-51
2024/02/05 19:41:44;;;;;;;;;;;;;;;9.84;68.01;100548.59;15735108;28;20055;-45
2024/02/05 19:49:18;;;;;;;0.35;0.35;;;;;;;9.77;68.48;100531.72;15734122;28;19927;-48
2024/02/05 19:56:53;;;;;;;0.05;0.05;;;;;;;9.78;68.48;100539.56;15733470;28;20101;-46
2024/02/05 20:04:26;;;;;;;0.13;0.13;;;;;;;9.79;69.25;100538.53;15738888;28;20033;-49
2024/02/05 20:12:01;;;;;;;0.68;0.65;;;;;;;9.76;69.52;100533.59;15737226;28;20048;-46
2024/02/05 20:19:35;;;;;;;0.30;0.30;;;;;;;9.88;69.50;100523.03;15736843;28;20046;-49
2024/02/05 20:27:11;;;;;;;0.95;0.35;;;;;;;9.71;70.02;100534.22;15718261;28;20033;-47
2024/02/05 20:34:45;;;;;;;0.63;0.52;;;;;;;9.66;70.41;100527.84;15717709;28;20052;-45
2024/02/05 20:42:22;;;;;;;16.10;1.20;;;;;;;9.75;70.58;100531.13;15734183;28;20079;-46
2024/02/05 20:49:55;;;;;;;0.30;0.30;;;;;;;9.70;70.28;100521.03;15715921;28;20037;-46
2024/02/05 20:57:31;;;;;;;22.95;2.65;;;;;;;9.71;70.48;100517.31;15729765;28;20048;-50
2024/02/05 21:05:09;;;;;;;15.23;1.25;;;;;;;9.71;70.09;100512.78;15726788;28;20068;-49
2024/02/05 21:12:44;;;;;;;0.68;0.68;;;;;;;9.71;69.96;100518.13;15740986;28;20083;-46
2024/02/05 21:20:17;;;;;;;3.75;1.55;;;;;;;9.78;69.35;100506.56;15726567;28;20041;-50
2024/02/05 21:27:52;;;;;;;0.05;0.05;;;;;;;9.72;69.43;100508.25;15737425;28;20044;-48
2024/02/05 21:35:27;;;;;;;1.95;1.55;;;;;;;9.84;69.41;100511.06;15739479;28;20111;-46
2024/02/05 21:43:02;;;;;;;0.47;0.47;;;;;;;9.66;69.45;100491.16;15741803;28;20049;-46
2024/02/05 21:50:35;;;;;;;0.32;0.32;;;;;;;9.68;69.28;100496.28;15746160;28;20067;-47
2024/02/05 21:58:11;;;;;;;0.52;0.25;;;;;;;9.61;69.43;100498.19;15715576;28;20068;-44
2024/02/05 22:05:46;;;;;;;0.20;0.20;;;;;;;9.51;69.57;100493.22;15718500;28;20043;-48
2024/02/05 22:13:21;;;;;;;0.15;0.15;;;;;;;9.45;69.56;100502.94;15739013;28;20052;-50
2024/02/05 22:20:56;;;;;;;0.17;0.17;;;;;;;9.74;68.70;100499.97;15725145;28;20044;-48
2024/02/05 22:28:32;;;;;;;0.10;0.10;;;;;;;9.59;68.84;100503.72;15705681;28;20032;-49
2024/02/05 22:36:06;;;;;;;0.55;0.55;;;;;;;9.61;68.55;100507.03;15738083;28;20076;-51
2024/02/05 22:43:43;;;;;;;0.15;0.15;;;;;;;9.45;69.00;100508.28;15721182;28;20040;-46
2024/02/05 22:51:17;;;;;;;0.50;0.50;;;;;;;9.41;68.90;100506.22;15717728;28;20043;-51
2024/02/05 22:58:54;;;;;;;;;;;;;;;9.32;69.20;100497.59;15727977;28;20563;-44
2024/02/05 23:06:28;;;;;;;0.00;0.00;;;;;;;9.24;69.57;100483.59;15724144;28;19920;-44
2024/02/05 23:14:06;;;;;;;0.40;0.40;;;;;;;9.21;69.22;100487.50;15727416;28;20040;-48
2024/02/05 23:21:40;;;;;;;1.35;0.43;;;;;;;9.22;69.39;100494.50;15725885;28;20040;-50
2024/02/05 23:29:15;;;;;;;0.00;0.00;;;;;;;9.24;68.77;100492.47;15731222;28;20056;-52
2024/02/05 23:36:48;;;;;;;0.10;0.10;;;;;;;9.23;68.60;100487.28;15720905;28;20044;-45
2024/02/05 23:44:26;;;;;;;0.00;0.00;;;;;;;9.11;68.47;100479.91;15713048;28;20040;-50
2024/02/05 23:52:00;;;;;;;0.00;0.00;;;;;;;9.02;68.84;100485.66;15717166;28;20222;-46
2024/02/05 23:59:37;;;;;;;0.63;0.63;;;;;;;9.17;68.08;100476.38;15711022;28;20071;-49
